Terminal Aerodrome Forecast
Issued by NWS

Home | Current Version | Previous Version | Text Only | Print | Product List | Glossary On
Versions: 1 2 3 4 5 6 7 8 9 10 11 12 13 14 15 16
000
FTUS45 KPIH 302300
TAFSUN
TAF
KSUN 302320Z 3100/3124 15006KT P6SM -SHRA SCT100 BKN140 BKN180
     FM310200 31007KT P6SM SCT090 BKN120
     FM310900 31006KT P6SM BKN090
     FM311800 14006KT P6SM VCTS SCT080CB
      AMD LTD TO CLD VIS AND WIND 3105/3113=

USA.gov is the U.S. government's official web portal to all federal, state and local government web resources and services.